createdAt,value
2018-09-17T00:01:07.643Z,101219.02
2018-09-17T00:03:36.718Z,101217.44
2018-09-17T00:06:05.655Z,101215.23
2018-09-17T00:08:34.655Z,101210.26
2018-09-17T00:11:03.609Z,101211.68
2018-09-17T00:13:32.553Z,101214.36
2018-09-17T00:16:01.606Z,101218.58
2018-09-17T00:18:30.583Z,101224.44
2018-09-17T00:20:59.525Z,101222.77
2018-09-17T00:23:28.583Z,101229.17
2018-09-17T00:25:57.463Z,101226.66
2018-09-17T00:28:26.375Z,101222.53
2018-09-17T00:30:55.388Z,101223.57
2018-09-17T00:33:24.333Z,101221.57
2018-09-17T00:35:53.363Z,101219.43
2018-09-17T00:38:22.347Z,101219.85
2018-09-17T00:40:51.360Z,101220.48
2018-09-17T00:43:21.345Z,101218.64
2018-09-17T00:45:50.516Z,101211.82
2018-09-17T00:48:19.984Z,101214.88
2018-09-17T00:50:49.061Z,101218.59
2018-09-17T00:53:18.054Z,101216.30
2018-09-17T00:55:47.097Z,101211.95
2018-09-17T00:58:15.943Z,101208.66
2018-09-17T01:00:44.823Z,101207.94
2018-09-17T01:03:17.270Z,101205.27
2018-09-17T01:05:46.308Z,101211.16
2018-09-17T01:08:15.178Z,101205.98
2018-09-17T01:10:44.283Z,101207.19
2018-09-17T01:13:13.221Z,101200.08
2018-09-17T01:15:42.187Z,101207.15
2018-09-17T01:18:11.144Z,101201.17
2018-09-17T01:20:40.108Z,101203.44
2018-09-17T01:23:09.048Z,101210.78
2018-09-17T01:25:37.877Z,101213.37
2018-09-17T01:28:06.821Z,101204.70
2018-09-17T01:30:35.622Z,101195.76
2018-09-17T01:33:04.616Z,101187.43
2018-09-17T01:35:33.617Z,101182.76
2018-09-17T01:38:02.587Z,101176.60
2018-09-17T01:40:31.337Z,101168.95
2018-09-17T01:43:00.146Z,101176.53
2018-09-17T01:45:29.180Z,101174.57
2018-09-17T01:47:58.386Z,101172.60
2018-09-17T01:50:27.187Z,101170.31
2018-09-17T01:52:56.004Z,101173.07
2018-09-17T01:55:24.946Z,101174.28
2018-09-17T01:57:53.830Z,101171.78
2018-09-17T02:00:22.771Z,101174.79
2018-09-17T02:02:55.060Z,101172.95
2018-09-17T02:05:24.031Z,101168.81
2018-09-17T02:07:53.038Z,101163.97
2018-09-17T02:10:22.033Z,101165.80
2018-09-17T02:12:58.744Z,101165.48
2018-09-17T02:15:27.791Z,101173.83
2018-09-17T02:17:56.592Z,101171.16
2018-09-17T02:20:25.595Z,101171.87
2018-09-17T02:22:54.560Z,101186.25
2018-09-17T02:25:23.414Z,101187.30
2018-09-17T02:27:52.530Z,101190.59
2018-09-17T02:30:21.375Z,101201.93
2018-09-17T02:32:50.188Z,101200.26
2018-09-17T02:35:19.209Z,101207.98
2018-09-17T02:37:48.039Z,101209.63
2018-09-17T02:40:18.193Z,101206.27
2018-09-17T02:42:50.314Z,101202.44
2018-09-17T02:45:20.147Z,101197.66
2018-09-17T02:47:49.000Z,101201.22
2018-09-17T02:50:17.889Z,101198.92
2018-09-17T02:52:46.667Z,101203.26
2018-09-17T02:55:15.642Z,101199.15
2018-09-17T02:57:44.451Z,101205.75
2018-09-17T03:00:13.568Z,101207.75
2018-09-17T03:02:43.571Z,101209.86
2018-09-17T03:05:12.432Z,101206.09
2018-09-17T03:07:41.275Z,101202.05
2018-09-17T03:10:10.178Z,101207.66
2018-09-17T03:12:39.470Z,101203.19
2018-09-17T03:15:19.391Z,101205.61
2018-09-17T03:17:48.243Z,101210.34
2018-09-17T03:20:17.246Z,101210.21
2018-09-17T03:22:46.071Z,101209.78
2018-09-17T03:25:14.949Z,101205.06
2018-09-17T03:27:43.893Z,101199.63
2018-09-17T03:30:12.999Z,101196.45
2018-09-17T03:32:41.889Z,101200.33
2018-09-17T03:35:10.797Z,101204.17
2018-09-17T03:37:39.779Z,101204.41
2018-09-17T03:40:08.683Z,101207.66
2018-09-17T03:42:37.573Z,101197.65
2018-09-17T03:45:06.461Z,101202.02
2018-09-17T03:47:35.340Z,101203.60
2018-09-17T03:50:04.175Z,101205.33
2018-09-17T03:52:33.032Z,101211.39
2018-09-17T03:55:01.943Z,101197.30
2018-09-17T03:57:30.784Z,101199.91
2018-09-17T03:59:59.620Z,101204.78
2018-09-17T04:02:28.466Z,101205.34
2018-09-17T04:04:57.257Z,101208.31
2018-09-17T04:07:26.073Z,101202.89
2018-09-17T04:09:55.097Z,101202.69
2018-09-17T04:12:23.881Z,101194.58
2018-09-17T04:14:52.765Z,101199.84
2018-09-17T04:17:21.769Z,101190.67
2018-09-17T04:19:50.593Z,101193.69
2018-09-17T04:22:19.535Z,101198.89
2018-09-17T04:24:48.467Z,101198.15
2018-09-17T04:27:17.338Z,101197.70
2018-09-17T04:29:46.383Z,101204.23
2018-09-17T04:32:15.317Z,101207.16
2018-09-17T04:34:44.217Z,101212.17
2018-09-17T04:37:13.114Z,101212.44
2018-09-17T04:39:42.030Z,101213.66
2018-09-17T04:42:10.864Z,101208.57
2018-09-17T04:44:39.781Z,101212.91
2018-09-17T04:47:08.684Z,101212.14
2018-09-17T04:49:37.668Z,101213.06
2018-09-17T04:52:06.680Z,101214.22
2018-09-17T04:54:35.688Z,101213.78
2018-09-17T04:57:04.720Z,101212.44
2018-09-17T04:59:33.616Z,101212.05
2018-09-17T05:02:02.588Z,101219.61
2018-09-17T05:04:38.648Z,101218.00
2018-09-17T05:07:07.619Z,101227.49
2018-09-17T05:09:36.533Z,101234.31
2018-09-17T05:12:05.593Z,101234.13
2018-09-17T05:14:34.473Z,101227.84
2018-09-17T05:17:03.429Z,101234.77
2018-09-17T05:19:32.487Z,101235.84
2018-09-17T05:22:01.597Z,101231.72
2018-09-17T05:24:30.617Z,101229.87
2018-09-17T05:26:59.566Z,101233.39
2018-09-17T05:29:28.577Z,101231.45
2018-09-17T05:31:57.628Z,101231.78
2018-09-17T05:34:26.641Z,101230.78
2018-09-17T05:36:55.719Z,101238.05
2018-09-17T05:39:24.747Z,101237.44
2018-09-17T05:41:53.732Z,101228.99
2018-09-17T05:44:22.660Z,101233.23
2018-09-17T05:46:51.625Z,101236.44
2018-09-17T05:49:20.643Z,101239.98
2018-09-17T05:51:49.640Z,101238.44
2018-09-17T05:54:18.665Z,101240.32
2018-09-17T05:56:47.728Z,101241.05
2018-09-17T05:59:16.700Z,101239.95
2018-09-17T06:01:45.582Z,101249.95
2018-09-17T06:04:14.470Z,101248.94
2018-09-17T06:06:43.418Z,101249.70
2018-09-17T06:09:13.503Z,101253.22
2018-09-17T06:11:42.434Z,101255.28
2018-09-17T06:14:11.515Z,101257.15
2018-09-17T06:16:40.577Z,101264.91
2018-09-17T06:19:09.473Z,101263.03
2018-09-17T06:21:38.334Z,101268.61
2018-09-17T06:24:07.270Z,101270.03
2018-09-17T06:26:36.237Z,101270.88
2018-09-17T06:29:05.186Z,101269.30
2018-09-17T06:31:34.117Z,101277.14
2018-09-17T06:34:17.447Z,101271.55
2018-09-17T06:36:46.287Z,101273.92
2018-09-17T06:39:15.061Z,101276.80
2018-09-17T06:41:43.971Z,101273.89
2018-09-17T06:44:14.923Z,101276.93
2018-09-17T06:46:43.924Z,101277.39
2018-09-17T06:49:12.784Z,101279.92
2018-09-17T06:51:41.685Z,101276.00
2018-09-17T06:54:11.768Z,101278.33
2018-09-17T06:56:40.723Z,101278.19
2018-09-17T06:59:09.603Z,101272.19
2018-09-17T07:01:38.574Z,101270.58
2018-09-17T07:04:11.034Z,101274.44
2018-09-17T07:06:40.057Z,101273.72
2018-09-17T07:09:11.412Z,101276.69
2018-09-17T07:11:40.547Z,101264.42
2018-09-17T07:14:09.866Z,101266.50
2018-09-17T07:16:39.683Z,101267.78
2018-09-17T07:19:08.616Z,101267.98
2018-09-17T07:21:37.599Z,101267.98
2018-09-17T07:24:07.620Z,101266.60
2018-09-17T07:26:36.614Z,101264.48
2018-09-17T07:29:05.779Z,101259.14
2018-09-17T07:31:34.649Z,101258.88
2018-09-17T07:34:03.717Z,101260.26
2018-09-17T07:36:32.985Z,101256.83
2018-09-17T07:39:01.957Z,101257.06
2018-09-17T07:41:30.864Z,101266.97
2018-09-17T07:44:00.959Z,101258.35
2018-09-17T07:46:30.041Z,101260.41
2018-09-17T07:48:58.936Z,101257.09
2018-09-17T07:51:27.839Z,101258.01
2018-09-17T07:54:02.596Z,101251.18
2018-09-17T07:56:31.560Z,101255.86
2018-09-17T07:59:01.207Z,101253.16
2018-09-17T08:01:31.168Z,101254.95
2018-09-17T08:04:04.568Z,101245.58
2018-09-17T08:06:33.706Z,101243.98
2018-09-17T08:09:03.029Z,101248.27
2018-09-17T08:11:34.000Z,101249.22
2018-09-17T08:14:03.524Z,101251.91
2018-09-17T08:16:36.628Z,101252.44
2018-09-17T08:19:08.765Z,101249.75
2018-09-17T08:21:38.449Z,101243.28
2018-09-17T08:24:15.909Z,101243.31
2018-09-17T08:26:44.976Z,101244.91
2018-09-17T08:29:14.054Z,101258.17
2018-09-17T08:31:45.739Z,101256.28
2018-09-17T08:34:36.285Z,101258.41
2018-09-17T08:37:05.441Z,101255.59
2018-09-17T08:39:35.468Z,101255.66
2018-09-17T08:42:04.645Z,101260.77
2018-09-17T08:44:34.856Z,101264.83
2018-09-17T08:47:03.980Z,101266.02
2018-09-17T08:49:33.289Z,101258.78
2018-09-17T08:52:03.998Z,101256.96
2018-09-17T08:54:39.404Z,101255.35
2018-09-17T08:57:14.324Z,101258.12
2018-09-17T08:59:51.328Z,101253.27
2018-09-17T09:02:26.631Z,101254.95
2018-09-17T09:04:56.788Z,101254.72
2018-09-17T09:07:36.429Z,101255.62
2018-09-17T09:10:11.504Z,101255.75
2018-09-17T09:12:41.849Z,101249.05
2018-09-17T09:15:18.091Z,101246.09
2018-09-17T09:17:49.349Z,101249.67
2018-09-17T09:20:20.217Z,101247.06
2018-09-17T09:23:02.682Z,101247.94
2018-09-17T09:25:49.445Z,101246.38
2018-09-17T09:28:19.195Z,101239.80
2018-09-17T09:30:55.152Z,101244.72
2018-09-17T09:33:24.434Z,101243.44
2018-09-17T09:35:54.240Z,101240.49
2018-09-17T09:38:23.378Z,101238.59
2018-09-17T09:40:52.637Z,101236.70
2018-09-17T09:43:33.508Z,101236.42
2018-09-17T09:46:15.569Z,101234.48
2018-09-17T09:48:45.418Z,101235.31
2018-09-17T09:51:14.553Z,101230.67
2018-09-17T09:53:43.697Z,101233.36
2018-09-17T09:56:13.247Z,101228.98
2018-09-17T09:58:42.430Z,101233.67
2018-09-17T10:01:20.819Z,101230.97
2018-09-17T10:03:55.172Z,101228.78
2018-09-17T10:06:24.368Z,101223.87
2018-09-17T10:08:58.993Z,101225.25
2018-09-17T10:11:33.419Z,101220.08
2018-09-17T10:14:11.020Z,101222.00
2018-09-17T10:17:11.165Z,101211.33
2018-09-17T10:19:50.313Z,101211.81
2018-09-17T10:22:20.429Z,101210.12
2018-09-17T10:24:49.664Z,101204.10
2018-09-17T10:27:32.142Z,101200.25
2018-09-17T10:30:01.706Z,101198.02
2018-09-17T10:32:30.763Z,101197.38
2018-09-17T10:34:59.896Z,101190.72
2018-09-17T10:37:39.955Z,101192.53
2018-09-17T10:40:09.209Z,101196.63
2018-09-17T10:42:38.288Z,101190.45
2018-09-17T10:45:10.702Z,101177.08
2018-09-17T10:47:52.597Z,101177.86
2018-09-17T10:50:21.794Z,101175.87
2018-09-17T10:52:51.098Z,101179.92
2018-09-17T10:55:20.289Z,101171.68
2018-09-17T10:57:51.268Z,101174.91
2018-09-17T11:00:21.677Z,101169.76
2018-09-17T11:02:50.891Z,101171.98
2018-09-17T11:05:21.002Z,101169.15
2018-09-17T11:07:57.907Z,101160.98
2018-09-17T11:10:30.887Z,101158.76
2018-09-17T11:13:00.348Z,101152.31
2018-09-17T11:15:34.750Z,101157.14
2018-09-17T11:18:04.203Z,101153.72
2018-09-17T11:20:33.425Z,101155.53
2018-09-17T11:23:03.345Z,101150.35
2018-09-17T11:25:33.133Z,101149.70
2018-09-17T11:28:02.207Z,101154.88
2018-09-17T11:30:31.347Z,101155.86
2018-09-17T11:33:01.752Z,101152.05
2018-09-17T11:35:33.094Z,101153.77
2018-09-17T11:38:08.064Z,101148.05
2018-09-17T11:40:41.545Z,101144.20
2018-09-17T11:43:11.257Z,101140.68
2018-09-17T11:45:40.672Z,101138.36
2018-09-17T11:48:09.853Z,101146.95
2018-09-17T11:50:38.954Z,101144.64
2018-09-17T11:53:08.094Z,101138.92
2018-09-17T11:55:37.145Z,101127.32
2018-09-17T11:58:13.544Z,101134.28
2018-09-17T12:00:47.656Z,101126.84
2018-09-17T12:03:21.811Z,101130.25
2018-09-17T12:05:56.108Z,101123.06
2018-09-17T12:08:32.627Z,101122.89
2018-09-17T12:11:01.731Z,101118.27
2018-09-17T12:13:30.787Z,101127.92
2018-09-17T12:15:59.829Z,101115.39
2018-09-17T12:18:29.903Z,101110.84
2018-09-17T12:20:58.923Z,101104.77
2018-09-17T12:23:27.850Z,101108.69
2018-09-17T12:25:56.785Z,101101.97
2018-09-17T12:28:25.627Z,101103.35
2018-09-17T12:30:54.547Z,101093.12
2018-09-17T12:33:23.531Z,101087.47
2018-09-17T12:35:52.463Z,101086.48
2018-09-17T12:38:35.358Z,101082.79
2018-09-17T12:41:04.467Z,101079.30
2018-09-17T12:43:33.439Z,101079.37
2018-09-17T12:46:02.515Z,101084.81
2018-09-17T12:48:55.400Z,101078.19
2018-09-17T12:51:24.451Z,101074.39
2018-09-17T12:53:53.431Z,101065.22
2018-09-17T12:56:22.408Z,101063.11
2018-09-17T12:58:51.443Z,101057.39
2018-09-17T13:01:20.347Z,101060.89
2018-09-17T13:03:49.360Z,101059.39
2018-09-17T13:06:18.366Z,101063.28
2018-09-17T13:08:48.383Z,101055.09
2018-09-17T13:11:17.494Z,101050.85
2018-09-17T13:13:46.441Z,101049.25
2018-09-17T13:16:15.333Z,101044.69
2018-09-17T13:18:45.228Z,101038.31
2018-09-17T13:21:14.128Z,101032.89
2018-09-17T13:23:43.061Z,101033.87
2018-09-17T13:26:11.982Z,101020.70
2018-09-17T13:28:42.999Z,101023.48
2018-09-17T13:31:11.998Z,101016.78
2018-09-17T13:33:41.045Z,101019.42
2018-09-17T13:36:09.968Z,101018.66
2018-09-17T13:38:39.055Z,101009.11
2018-09-17T13:41:08.076Z,101006.55
2018-09-17T13:43:37.032Z,101013.06
2018-09-17T13:46:05.992Z,101009.05
2018-09-17T13:48:35.039Z,100998.89
2018-09-17T13:51:03.932Z,101003.09
2018-09-17T13:53:33.011Z,101003.19
2018-09-17T13:56:01.884Z,100998.84
2018-09-17T13:58:31.941Z,100998.14
2018-09-17T14:01:00.898Z,100991.22
2018-09-17T14:03:29.916Z,100987.89
2018-09-17T14:05:58.894Z,100993.87
2018-09-17T14:08:38.077Z,100981.31
2018-09-17T14:11:07.182Z,100982.92
2018-09-17T14:13:36.138Z,100977.50
2018-09-17T14:16:07.839Z,100977.62
2018-09-17T14:18:37.837Z,100971.41
2018-09-17T14:21:07.321Z,100968.66
2018-09-17T14:23:36.313Z,100957.81
2018-09-17T14:26:05.284Z,100964.10
2018-09-17T14:29:00.468Z,100958.96
2018-09-17T14:31:34.480Z,100950.83
2018-09-17T14:34:03.431Z,100949.66
2018-09-17T14:36:32.317Z,100951.34
2018-09-17T14:39:05.504Z,100939.13
2018-09-17T14:41:34.469Z,100938.89
2018-09-17T14:44:03.516Z,100933.31
2018-09-17T14:46:32.393Z,100931.33
2018-09-17T14:49:08.844Z,100937.80
2018-09-17T14:51:37.773Z,100934.22
2018-09-17T14:54:06.791Z,100942.25
2018-09-17T14:56:35.737Z,100939.00
2018-09-17T14:59:08.175Z,100935.55
2018-09-17T15:01:37.193Z,100931.12
2018-09-17T15:04:06.033Z,100925.64
2018-09-17T15:06:34.996Z,100922.02
2018-09-17T15:09:05.183Z,100922.30
2018-09-17T15:11:34.156Z,100920.16
2018-09-17T15:14:03.217Z,100919.28
2018-09-17T15:16:32.161Z,100919.58
2018-09-17T15:19:01.120Z,100922.95
2018-09-17T15:21:30.078Z,100918.19
2018-09-17T15:23:59.077Z,100911.69
2018-09-17T15:26:27.957Z,100912.50
2018-09-17T15:28:57.032Z,100910.39
2018-09-17T15:31:26.019Z,100908.17
2018-09-17T15:33:55.121Z,100904.38
2018-09-17T15:36:24.015Z,100898.92
2018-09-17T15:38:53.047Z,100898.13
2018-09-17T15:41:22.315Z,100894.87
2018-09-17T15:43:51.170Z,100892.91
2018-09-17T15:46:20.176Z,100892.95
2018-09-17T15:48:49.181Z,100891.93
2018-09-17T15:51:18.183Z,100889.18
2018-09-17T15:53:47.215Z,100880.98
2018-09-17T15:56:16.212Z,100883.52
2018-09-17T15:58:45.133Z,100884.00
2018-09-17T16:01:14.977Z,100881.66
2018-09-17T16:03:44.000Z,100875.42
2018-09-17T16:06:12.893Z,100876.58
2018-09-17T16:08:41.865Z,100872.05
2018-09-17T16:11:10.835Z,100868.89
2018-09-17T16:13:39.797Z,100869.35
2018-09-17T16:16:08.781Z,100871.71
2018-09-17T16:18:37.795Z,100864.35
2018-09-17T16:21:06.656Z,100869.88
2018-09-17T16:23:35.737Z,100867.45
2018-09-17T16:26:04.733Z,100869.77
2018-09-17T16:28:33.848Z,100875.23
2018-09-17T16:31:02.726Z,100871.02
2018-09-17T16:33:31.799Z,100875.84
2018-09-17T16:36:00.750Z,100868.45
2018-09-17T16:38:29.784Z,100875.45
2018-09-17T16:40:58.672Z,100867.23
2018-09-17T16:43:27.720Z,100864.19
2018-09-17T16:45:56.679Z,100865.40
2018-09-17T16:48:25.634Z,100859.82
2018-09-17T16:50:54.669Z,100860.30
2018-09-17T16:53:23.721Z,100858.44
2018-09-17T16:55:52.544Z,100870.00
2018-09-17T16:58:21.439Z,100875.95
2018-09-17T17:00:50.316Z,100869.72
2018-09-17T17:03:19.362Z,100879.19
2018-09-17T17:05:48.225Z,100875.38
2018-09-17T17:08:18.205Z,100877.22
2018-09-17T17:10:47.153Z,100878.66
2018-09-17T17:13:16.263Z,100871.27
2018-09-17T17:15:48.712Z,100877.70
2018-09-17T17:18:19.945Z,100888.48
2018-09-17T17:20:48.901Z,100879.29
2018-09-17T17:23:18.286Z,100874.95
2018-09-17T17:25:47.685Z,100879.78
2018-09-17T17:28:17.368Z,100879.93
2018-09-17T17:30:46.848Z,100881.92
2018-09-17T17:33:16.411Z,100880.63
2018-09-17T17:35:46.561Z,100879.86
2018-09-17T17:38:15.962Z,100873.62
2018-09-17T17:40:45.636Z,100869.02
2018-09-17T17:43:15.115Z,100870.94
2018-09-17T17:45:44.603Z,100874.16
2018-09-17T17:48:14.048Z,100871.95
2018-09-17T17:50:44.380Z,100875.75
2018-09-17T17:53:13.905Z,100877.34
2018-09-17T17:55:43.846Z,100871.94
2018-09-17T17:58:15.253Z,100870.38
2018-09-17T18:00:44.673Z,100870.57
2018-09-17T18:03:14.395Z,100865.69
2018-09-17T18:05:44.719Z,100863.30
2018-09-17T18:08:15.134Z,100863.70
2018-09-17T18:10:45.441Z,100866.75
2018-09-17T18:13:16.358Z,100865.80
2018-09-17T18:15:46.869Z,100861.37
2018-09-17T18:18:16.512Z,100865.33
2018-09-17T18:20:49.832Z,100864.42
2018-09-17T18:23:19.736Z,100865.45
2018-09-17T18:25:49.203Z,100862.95
2018-09-17T18:28:18.671Z,100866.48
2018-09-17T18:30:48.873Z,100871.13
2018-09-17T18:33:18.406Z,100863.91
2018-09-17T18:35:48.767Z,100869.95
2018-09-17T18:38:18.242Z,100872.94
2018-09-17T18:40:48.776Z,100870.55
2018-09-17T18:43:18.275Z,100870.88
2018-09-17T18:45:48.421Z,100865.83
2018-09-17T18:48:17.940Z,100870.17
2018-09-17T18:50:47.428Z,100867.14
2018-09-17T18:53:18.791Z,100870.22
2018-09-17T18:55:48.950Z,100866.57
2018-09-17T18:58:19.474Z,100871.07
2018-09-17T19:00:49.957Z,100866.44
2018-09-17T19:03:20.946Z,100864.20
2018-09-17T19:05:51.424Z,100863.03
2018-09-17T19:08:22.374Z,100861.06
2018-09-17T19:10:51.800Z,100859.00
2018-09-17T19:13:21.277Z,100857.31
2018-09-17T19:15:53.860Z,100854.69
2018-09-17T19:18:24.413Z,100849.75
2018-09-17T19:20:58.204Z,100857.49
2018-09-17T19:23:32.790Z,100851.97
2018-09-17T19:26:07.548Z,100850.83
2018-09-17T19:28:42.753Z,100844.86
2018-09-17T19:31:12.252Z,100841.58
2018-09-17T19:33:41.795Z,100839.19
2018-09-17T19:36:12.165Z,100834.67
2018-09-17T19:38:47.181Z,100835.56
2018-09-17T19:41:16.945Z,100831.25
2018-09-17T19:43:47.533Z,100833.63
2018-09-17T19:46:17.978Z,100835.42
2018-09-17T19:48:48.201Z,100835.88
2018-09-17T19:51:23.422Z,100834.77
2018-09-17T19:53:57.000Z,100840.16
2018-09-17T19:56:26.489Z,100836.50
2018-09-17T20:00:04.515Z,100835.22
2018-09-17T20:02:34.013Z,100828.87
2018-09-17T20:05:08.833Z,100836.36
2018-09-17T20:07:38.641Z,100828.73
2018-09-17T20:10:08.990Z,100828.73
2018-09-17T20:12:39.414Z,100828.05
2018-09-17T20:15:08.956Z,100830.35
2018-09-17T20:17:39.036Z,100827.94
2018-09-17T20:20:09.061Z,100828.48
2018-09-17T20:22:38.781Z,100823.31
2018-09-17T20:25:08.843Z,100820.09
2018-09-17T20:27:38.333Z,100823.89
2018-09-17T20:30:08.317Z,100824.52
2018-09-17T20:32:39.156Z,100825.55
2018-09-17T20:35:09.342Z,100824.66
2018-09-17T20:37:38.986Z,100821.31
2018-09-17T20:40:08.529Z,100813.98
2018-09-17T20:42:38.903Z,100818.03
2018-09-17T20:45:08.247Z,100813.98
2018-09-17T20:47:38.033Z,100815.86
2018-09-17T20:50:07.485Z,100816.30
2018-09-17T20:52:37.079Z,100812.78
2018-09-17T20:55:06.522Z,100807.95
2018-09-17T20:57:36.288Z,100804.36
2018-09-17T21:00:05.969Z,100804.29
2018-09-17T21:02:36.603Z,100804.22
2018-09-17T21:05:06.058Z,100800.46
2018-09-17T21:07:35.680Z,100802.05
2018-09-17T21:10:05.268Z,100798.18
2018-09-17T21:12:35.884Z,100793.45
2018-09-17T21:15:05.837Z,100792.34
2018-09-17T21:17:35.325Z,100791.24
2018-09-17T21:20:04.879Z,100791.24
2018-09-17T21:22:34.410Z,100790.48
2018-09-17T21:25:03.994Z,100785.38
2018-09-17T21:27:33.479Z,100787.34
2018-09-17T21:30:02.953Z,100784.79
2018-09-17T21:32:32.461Z,100782.61
2018-09-17T21:35:01.930Z,100779.41
2018-09-17T21:37:31.482Z,100780.30
2018-09-17T21:40:00.997Z,100776.27
2018-09-17T21:42:30.013Z,100773.57
2018-09-17T21:44:59.375Z,100774.47
2018-09-17T21:47:28.394Z,100773.78
2018-09-17T21:49:58.567Z,100774.02
2018-09-17T21:52:27.517Z,100769.84
2018-09-17T21:54:56.478Z,100768.70
2018-09-17T21:57:25.478Z,100769.30
2018-09-17T21:59:54.356Z,100769.36
2018-09-17T22:02:23.333Z,100765.33
2018-09-17T22:04:52.244Z,100766.08
2018-09-17T22:07:21.311Z,100771.02
2018-09-17T22:09:50.138Z,100766.08
2018-09-17T22:12:19.203Z,100767.25
2018-09-17T22:14:48.162Z,100765.45
2018-09-17T22:17:17.173Z,100766.41
2018-09-17T22:19:46.252Z,100766.47
2018-09-17T22:22:15.203Z,100762.56
2018-09-17T22:24:44.349Z,100762.84
2018-09-17T22:27:13.505Z,100762.63
2018-09-17T22:29:42.318Z,100762.56
2018-09-17T22:32:11.266Z,100755.45
2018-09-17T22:34:40.310Z,100758.09
2018-09-17T22:37:09.288Z,100749.88
2018-09-17T22:39:38.179Z,100750.78
2018-09-17T22:42:07.279Z,100751.55
2018-09-17T22:44:36.182Z,100744.75
2018-09-17T22:47:05.244Z,100749.55
2018-09-17T22:49:34.081Z,100747.03
2018-09-17T22:52:03.090Z,100744.34
2018-09-17T22:54:32.112Z,100747.06
2018-09-17T22:57:01.108Z,100744.00
2018-09-17T22:59:30.135Z,100741.48
2018-09-17T23:01:59.136Z,100736.99
2018-09-17T23:04:28.009Z,100739.20
2018-09-17T23:06:56.885Z,100731.89
2018-09-17T23:09:25.835Z,100730.27
2018-09-17T23:11:54.778Z,100728.37
2018-09-17T23:14:23.836Z,100730.41
2018-09-17T23:16:52.708Z,100729.23
2018-09-17T23:19:22.169Z,100730.85
2018-09-17T23:21:51.034Z,100730.12
2018-09-17T23:24:20.009Z,100725.47
2018-09-17T23:26:48.973Z,100728.61
2018-09-17T23:29:17.935Z,100719.64
2018-09-17T23:31:46.935Z,100717.09
2018-09-17T23:34:15.865Z,100713.81
2018-09-17T23:36:44.832Z,100711.87
2018-09-17T23:39:13.847Z,100715.84
2018-09-17T23:41:42.857Z,100707.39
2018-09-17T23:44:11.846Z,100706.50
2018-09-17T23:46:40.723Z,100705.91
2018-09-17T23:49:09.706Z,100706.35
2018-09-17T23:51:38.721Z,100702.41
2018-09-17T23:54:07.613Z,100701.07
2018-09-17T23:56:36.643Z,100695.77
2018-09-17T23:59:05.746Z,100697.11
